Time;durP1;ratioP1;P1;durP2;ratioP2;P2;SDS_P1;SDS_P2;PMS_P1;PMS_P2;Temp;Humidity;BMP_temperature;BMP_pressure;BME280_temperature;BME280_humidity;BME280_pressure;Samples;Min_cycle;Max_cycle;Signal;HPM_P1;HPM_P2
2021/03/21 05:11:56;;;;;;;1.17;1.17;;;3.70;99.90;;;;;;5315498;23;20229;-73
2021/03/21 05:14:32;;;;;;;1.40;1.40;;;3.60;99.90;;;;;;4975615;28;20211;-73
2021/03/21 05:17:07;;;;;;;1.30;1.30;;;3.60;99.90;;;;;;4975459;28;20616;-73
2021/03/21 05:19:46;;;;;;;1.30;1.30;;;3.60;99.90;;;;;;4975501;28;20291;-74
2021/03/21 05:22:21;;;;;;;1.30;1.30;;;3.50;99.90;;;;;;4975573;28;20708;-74
2021/03/21 05:24:54;;;;;;;1.30;1.30;;;3.90;99.90;;;;;;4976054;28;20200;-73
2021/03/21 05:27:29;;;;;;;1.50;1.50;;;3.40;99.90;;;;;;4975467;28;20213;-73
2021/03/21 05:30:01;;;;;;;1.40;1.40;;;3.30;99.90;;;;;;4974491;28;20212;-73
2021/03/21 05:32:29;;;;;;;1.10;1.10;;;3.30;99.90;;;;;;4975294;28;20225;-72
2021/03/21 05:34:58;;;;;;;1.40;1.40;;;3.50;99.90;;;;;;4975224;28;20303;-73
2021/03/21 05:37:32;;;;;;;1.20;1.20;;;3.40;99.90;;;;;;4975211;28;20616;-73
2021/03/21 05:40:24;;;;;;;1.10;1.10;;;3.60;99.90;;;;;;4975407;28;20275;-73
2021/03/21 05:43:23;;;;;;;1.23;1.23;;;3.60;99.90;;;;;;4975255;28;20241;-72
2021/03/21 05:46:34;;;;;;;1.13;1.13;;;3.70;99.90;;;;;;4975165;28;20201;-72
2021/03/21 05:49:24;;;;;;;1.30;1.30;;;3.70;99.90;;;;;;4975076;28;20291;-73
2021/03/21 05:52:34;;;;;;;1.30;1.30;;;4.00;99.90;;;;;;4975273;28;20635;-72
2021/03/21 05:55:22;;;;;;;1.20;1.20;;;3.90;99.90;;;;;;4965257;28;20251;-74
2021/03/21 05:58:31;;;;;;;1.50;1.50;;;4.10;99.90;;;;;;4955543;29;20228;-74
2021/03/21 06:01:37;;;;;;;1.20;1.20;;;4.00;99.90;;;;;;4955808;29;20316;-73
2021/03/21 06:04:45;;;;;;;1.30;1.30;;;3.70;99.90;;;;;;4955484;28;20287;-73
2021/03/21 06:07:47;;;;;;;1.30;1.30;;;4.00;99.90;;;;;;4916710;29;20214;-73
2021/03/21 06:10:38;;;;;;;1.40;1.40;;;4.00;99.90;;;;;;4955172;29;20213;-72
2021/03/21 06:13:18;;;;;;;1.17;1.17;;;3.90;99.90;;;;;;4955220;29;20585;-73
2021/03/21 06:16:14;;;;;;;1.13;1.13;;;3.90;99.90;;;;;;4954699;29;20221;-73
2021/03/21 06:19:04;;;;;;;1.30;1.30;;;3.70;99.90;;;;;;4955353;29;20352;-74
2021/03/21 06:22:05;;;;;;;1.30;1.30;;;4.00;99.90;;;;;;4954917;29;20284;-74
2021/03/21 06:24:54;;;;;;;1.30;1.30;;;3.90;99.90;;;;;;4955074;29;20204;-72
2021/03/21 06:28:09;;;;;;;1.40;1.40;;;4.00;99.90;;;;;;4952118;28;20411;-73
2021/03/21 06:31:13;;;;;;;1.27;1.27;;;3.70;99.90;;;;;;4938393;29;20584;-72
2021/03/21 06:33:46;;;;;;;1.10;1.10;;;3.70;99.90;;;;;;4954819;29;20305;-72
2021/03/21 06:36:30;;;;;;;1.57;1.57;;;3.60;99.90;;;;;;4954253;29;20229;-74
2021/03/21 06:39:25;;;;;;;1.30;1.30;;;3.60;99.90;;;;;;4954456;29;20201;-74
2021/03/21 06:42:32;;;;;;;1.40;1.40;;;3.60;99.90;;;;;;4954420;28;20229;-74
2021/03/21 06:45:29;;;;;;;1.43;1.43;;;3.60;99.90;;;;;;4954147;29;20283;-72
2021/03/21 06:48:11;;;;;;;1.30;1.30;;;3.50;99.90;;;;;;4938452;29;20264;-73
2021/03/21 06:50:59;;;;;;;1.40;1.40;;;3.50;99.90;;;;;;4954340;28;20250;-73
2021/03/21 06:53:35;;;;;;;1.23;1.23;;;3.50;99.90;;;;;;4941775;29;20630;-72
2021/03/21 06:56:32;;;;;;;1.20;1.20;;;3.50;99.90;;;;;;4954119;29;20229;-73
2021/03/21 06:59:27;;;;;;;1.10;1.10;;;3.50;99.90;;;;;;4954158;29;20268;-73
2021/03/21 07:02:32;;;;;;;1.50;1.50;;;3.50;99.90;;;;;;4953828;29;20231;-74
2021/03/21 07:05:39;;;;;;;1.30;1.30;;;3.50;99.90;;;;;;4953019;28;20217;-73
2021/03/21 07:08:35;;;;;;;1.27;1.27;;;3.50;99.90;;;;;;4965586;28;20204;-73
2021/03/21 07:11:43;;;;;;;1.10;1.10;;;3.50;99.90;;;;;;4953200;29;20248;-73
2021/03/21 07:14:47;;;;;;;1.40;1.40;;;3.50;99.90;;;;;;4952995;29;20259;-73
2021/03/21 07:17:49;;;;;;;1.20;1.20;;;3.70;99.90;;;;;;4940776;29;20662;-73
2021/03/21 07:21:01;;;;;;;1.40;1.40;;;3.60;99.90;;;;;;4952965;29;20209;-73
2021/03/21 07:23:57;;;;;;;1.40;1.40;;;3.70;99.90;;;;;;4952996;29;20216;-74
2021/03/21 07:26:43;;;;;;;1.20;1.20;;;3.90;99.90;;;;;;4948334;29;20637;-74
2021/03/21 07:29:47;;;;;;;1.10;1.10;;;3.90;99.90;;;;;;4952906;29;20729;-73
2021/03/21 07:33:02;;;;;;;1.40;1.40;;;3.90;99.90;;;;;;4952804;29;20229;-74
2021/03/21 07:36:05;;;;;;;1.30;1.30;;;4.10;99.90;;;;;;4952876;29;20225;-73
2021/03/21 07:39:20;;;;;;;1.20;1.20;;;4.00;99.90;;;;;;4937904;29;20357;-73
2021/03/21 07:42:07;;;;;;;1.20;1.20;;;4.10;99.90;;;;;;4949487;29;20232;-73
2021/03/21 07:45:10;;;;;;;1.10;1.10;;;4.20;99.90;;;;;;4952777;29;20585;-73
2021/03/21 07:47:50;;;;;;;1.20;1.20;;;4.20;99.90;;;;;;4952440;29;20209;-73
2021/03/21 07:50:28;;;;;;;1.30;1.30;;;4.30;99.90;;;;;;4952822;29;20215;-74
2021/03/21 07:53:09;;;;;;;1.27;1.27;;;4.30;99.90;;;;;;4953526;28;20244;-74
2021/03/21 07:55:45;;;;;;;1.20;1.20;;;4.40;99.90;;;;;;4956336;29;20276;-74
2021/03/21 07:58:19;;;;;;;1.60;1.60;;;4.50;99.90;;;;;;4956598;29;20204;-74
2021/03/21 08:00:48;;;;;;;1.20;1.20;;;4.40;99.90;;;;;;4956796;29;20232;-75
2021/03/21 08:03:25;;;;;;;1.27;1.27;;;4.50;99.90;;;;;;4956697;29;20229;-73
2021/03/21 08:05:57;;;;;;;1.20;1.20;;;4.60;99.90;;;;;;4956703;29;20208;-73
2021/03/21 08:08:26;;;;;;;1.10;1.10;;;4.50;99.90;;;;;;4956436;29;20229;-73
2021/03/21 08:10:58;;;;;;;1.40;1.40;;;4.50;99.90;;;;;;4956656;29;20284;-75
2021/03/21 08:13:37;;;;;;;1.37;1.37;;;4.50;99.90;;;;;;4963501;28;20259;-76
2021/03/21 08:16:05;;;;;;;1.30;1.30;;;4.60;99.90;;;;;;4958386;28;20225;-77
2021/03/21 08:18:35;;;;;;;1.20;1.20;;;4.70;99.90;;;;;;4956556;29;20284;-74
2021/03/21 08:21:08;;;;;;;1.30;1.30;;;5.00;99.90;;;;;;4956396;29;20229;-75
2021/03/21 08:23:38;;;;;;;1.20;1.20;;;4.70;99.90;;;;;;4956426;29;20248;-77
2021/03/21 08:26:08;;;;;;;1.40;1.40;;;4.80;99.90;;;;;;4956489;29;20201;-74
2021/03/21 08:29:00;;;;;;;1.40;1.40;;;4.70;99.90;;;;;;4956314;29;20248;-75
2021/03/21 08:31:29;;;;;;;1.30;1.30;;;4.80;99.90;;;;;;4956204;29;20240;-73
2021/03/21 08:34:32;;;;;;;1.20;1.20;;;4.70;99.90;;;;;;4956210;29;20205;-73
2021/03/21 08:37:03;;;;;;;1.20;1.20;;;4.90;99.90;;;;;;4953898;29;20236;-73
2021/03/21 08:39:39;;;;;;;1.20;1.20;;;5.00;99.90;;;;;;4956631;29;20499;-73
2021/03/21 08:42:32;;;;;;;1.30;1.30;;;5.10;99.90;;;;;;4956395;29;20296;-73
2021/03/21 08:45:21;;;;;;;1.27;1.27;;;5.10;99.90;;;;;;4955731;29;20697;-75
2021/03/21 08:48:02;;;;;;;1.33;1.33;;;5.30;99.90;;;;;;4955664;29;20674;-73
2021/03/21 08:50:42;;;;;;;1.30;1.30;;;5.50;99.90;;;;;;4955678;29;20233;-74
2021/03/21 08:53:26;;;;;;;1.57;1.57;;;5.60;99.90;;;;;;4955596;29;20209;-75
2021/03/21 08:56:14;;;;;;;1.20;1.20;;;5.60;99.90;;;;;;4955398;29;20236;-73
2021/03/21 08:58:43;;;;;;;1.10;1.10;;;5.50;99.90;;;;;;4955715;29;20236;-75
2021/03/21 09:01:17;;;;;;;1.20;1.20;;;5.50;99.90;;;;;;4955742;29;20240;-74
2021/03/21 09:03:45;;;;;;;1.30;1.30;;;5.50;99.90;;;;;;4955255;28;20612;-74
2021/03/21 09:06:27;;;;;;;1.10;1.10;;;5.50;99.90;;;;;;4954413;29;20212;-74
2021/03/21 09:09:15;;;;;;;1.20;1.20;;;5.60;99.90;;;;;;4955267;29;20205;-73
2021/03/21 09:11:45;;;;;;;1.20;1.20;;;5.70;99.90;;;;;;4955367;29;20247;-73
2021/03/21 09:14:19;;;;;;;1.30;1.30;;;5.60;99.90;;;;;;4955310;29;20315;-74
2021/03/21 09:16:56;;;;;;;1.30;1.30;;;6.00;99.90;;;;;;4955147;29;20259;-73
2021/03/21 09:19:25;;;;;;;1.20;1.20;;;5.90;99.90;;;;;;4955291;29;20760;-73
2021/03/21 09:21:52;;;;;;;1.30;1.30;;;5.80;99.90;;;;;;4955263;29;20299;-74
2021/03/21 09:24:23;;;;;;;1.10;1.10;;;5.90;99.90;;;;;;4955184;29;20201;-73
2021/03/21 09:26:52;;;;;;;1.10;1.10;;;6.10;99.90;;;;;;4955774;29;20233;-74
2021/03/21 09:29:24;;;;;;;1.20;1.20;;;5.90;99.90;;;;;;4955911;29;20276;-75
2021/03/21 09:31:55;;;;;;;1.00;1.00;;;6.20;99.90;;;;;;4955716;29;20316;-75
2021/03/21 09:34:29;;;;;;;1.17;1.17;;;6.10;99.90;;;;;;4955115;29;20292;-74
2021/03/21 09:37:01;;;;;;;1.30;1.30;;;5.90;99.90;;;;;;4955075;29;20642;-73
2021/03/21 09:39:32;;;;;;;1.10;1.10;;;5.90;99.90;;;;;;4954883;29;20206;-74
2021/03/21 09:42:01;;;;;;;1.10;1.10;;;5.90;99.90;;;;;;4954740;29;20288;-73
2021/03/21 09:44:36;;;;;;;1.20;1.20;;;5.90;99.90;;;;;;4954875;29;20212;-72
2021/03/21 09:47:18;;;;;;;1.20;1.20;;;5.90;99.90;;;;;;4954697;29;20688;-72
2021/03/21 09:49:55;;;;;;;1.30;1.30;;;5.90;99.90;;;;;;4954691;29;20205;-73
2021/03/21 09:52:32;;;;;;;1.20;1.20;;;5.90;99.90;;;;;;4955070;29;20238;-73
2021/03/21 09:55:12;;;;;;;1.30;1.30;;;6.10;99.90;;;;;;4954429;29;20681;-73
2021/03/21 09:57:55;;;;;;;1.23;1.23;;;6.40;99.90;;;;;;4954691;29;20208;-73
2021/03/21 10:00:28;;;;;;;1.40;1.40;;;6.40;99.90;;;;;;4954507;29;20219;-72
2021/03/21 10:03:03;;;;;;;1.30;1.30;;;6.20;99.90;;;;;;4954330;29;20295;-73
2021/03/21 10:05:38;;;;;;;1.33;1.33;;;6.70;99.90;;;;;;4954172;29;20207;-73
2021/03/21 10:08:15;;;;;;;1.00;1.00;;;6.60;99.90;;;;;;4954614;29;20212;-73
2021/03/21 10:10:52;;;;;;;1.13;1.13;;;6.50;99.90;;;;;;4954986;29;20609;-73
2021/03/21 10:13:32;;;;;;;1.20;1.20;;;6.70;99.90;;;;;;4954284;29;20208;-74
2021/03/21 10:16:36;;;;;;;1.17;1.17;;;6.60;99.90;;;;;;4953599;28;20224;-73
2021/03/21 10:19:07;;;;;;;1.20;1.20;;;6.60;99.90;;;;;;4923985;29;20292;-74
2021/03/21 10:21:40;;;;;;;1.10;1.10;;;6.60;99.90;;;;;;4954295;29;20231;-74
2021/03/21 10:24:14;;;;;;;1.30;1.30;;;6.50;99.90;;;;;;4954160;29;20264;-75
2021/03/21 10:27:26;;;;;;;1.20;1.20;;;6.30;99.90;;;;;;4954049;29;20205;-76
2021/03/21 10:30:11;;;;;;;1.23;1.23;;;6.50;99.90;;;;;;4939556;29;20212;-78
2021/03/21 10:32:42;;;;;;;1.20;1.20;;;6.70;99.90;;;;;;4954200;29;20201;-75
2021/03/21 10:35:30;;;;;;;1.20;1.20;;;6.70;99.90;;;;;;4953812;29;20300;-75
2021/03/21 10:38:02;;;;;;;1.20;1.20;;;7.00;99.90;;;;;;4941679;29;20201;-73
2021/03/21 10:40:43;;;;;;;1.20;1.20;;;7.00;99.90;;;;;;4953895;29;20205;-75
2021/03/21 10:43:33;;;;;;;1.20;1.20;;;7.10;99.90;;;;;;4954269;29;20205;-76
2021/03/21 10:46:00;;;;;;;1.20;1.20;;;7.30;99.90;;;;;;4954135;29;20210;-74
2021/03/21 10:48:53;;;;;;;1.10;1.10;;;7.20;99.90;;;;;;4954077;29;20205;-74
2021/03/21 10:51:21;;;;;;;1.20;1.20;;;;;;;;;;4939871;29;20229;-75
2021/03/21 10:54:26;;;;;;;1.20;1.20;;;7.70;99.90;;;;;;4953763;29;20216;-74
2021/03/21 10:57:24;;;;;;;1.40;1.40;;;7.40;99.90;;;;;;4953783;29;20228;-74
2021/03/21 11:00:20;;;;;;;1.10;1.10;;;7.40;99.90;;;;;;4953159;29;20209;-74
2021/03/21 11:02:51;;;;;;;1.20;1.20;;;7.30;99.90;;;;;;4920465;29;20260;-73
2021/03/21 11:05:31;;;;;;;1.30;1.30;;;7.20;99.90;;;;;;4953222;29;20566;-73
2021/03/21 11:08:06;;;;;;;1.10;1.10;;;7.20;99.90;;;;;;4953813;29;20232;-74
2021/03/21 11:10:37;;;;;;;1.00;1.00;;;7.10;99.90;;;;;;4953752;29;20237;-75
2021/03/21 11:13:05;;;;;;;1.10;1.10;;;6.90;99.90;;;;;;4953491;29;20288;-76
2021/03/21 11:15:37;;;;;;;1.00;1.00;;;7.00;99.90;;;;;;4953123;29;20209;-75
2021/03/21 11:18:17;;;;;;;1.20;1.20;;;7.20;99.90;;;;;;4953496;29;20204;-74
2021/03/21 11:20:46;;;;;;;1.00;1.00;;;6.90;99.90;;;;;;4952964;29;20225;-73
2021/03/21 11:23:19;;;;;;;1.20;1.20;;;7.00;99.90;;;;;;4953352;29;20681;-76
2021/03/21 11:25:47;;;;;;;1.20;1.20;;;6.90;99.90;;;;;;4953084;29;20212;-73
2021/03/21 11:28:26;;;;;;;1.00;1.00;;;7.20;99.90;;;;;;4952060;28;20205;-73
2021/03/21 11:30:56;;;;;;;1.10;1.10;;;7.00;99.90;;;;;;4952632;29;20323;-74
2021/03/21 11:33:33;;;;;;;1.20;1.20;;;7.00;99.90;;;;;;4952797;29;20493;-73
2021/03/21 11:36:25;;;;;;;1.10;1.10;;;7.20;99.90;;;;;;4952744;29;20707;-72
2021/03/21 11:38:54;;;;;;;1.13;1.13;;;7.70;99.90;;;;;;4952379;29;20209;-72
2021/03/21 11:41:35;;;;;;;1.20;1.20;;;7.50;99.90;;;;;;4952118;29;20229;-74
2021/03/21 11:44:18;;;;;;;1.00;1.00;;;7.50;99.90;;;;;;4953625;29;20228;-74
2021/03/21 11:46:46;;;;;;;1.00;1.00;;;7.60;99.90;;;;;;4953325;29;20208;-76
2021/03/21 11:49:15;;;;;;;1.10;1.10;;;7.60;99.90;;;;;;4953027;29;20209;-73
2021/03/21 11:51:45;;;;;;;1.20;1.20;;;7.60;99.90;;;;;;4952975;29;20285;-75
2021/03/21 11:54:18;;;;;;;1.00;1.00;;;7.40;99.90;;;;;;4953094;29;20205;-73
2021/03/21 11:56:54;;;;;;;1.20;1.20;;;7.50;99.90;;;;;;4953010;29;20312;-74
2021/03/21 11:59:26;;;;;;;1.17;1.17;;;7.40;99.90;;;;;;4953178;29;20263;-73
2021/03/21 12:01:57;;;;;;;1.17;1.17;;;7.30;99.90;;;;;;4953119;29;20284;-72
2021/03/21 12:04:28;;;;;;;1.10;1.10;;;7.30;99.90;;;;;;4953393;29;20667;-73
2021/03/21 12:06:58;;;;;;;1.00;1.00;;;7.20;99.90;;;;;;4952755;29;20663;-73
2021/03/21 12:09:28;;;;;;;0.90;0.90;;;7.10;99.90;;;;;;4953026;29;20260;-73
2021/03/21 12:11:55;;;;;;;1.20;1.20;;;;;;;;;;4952444;29;20722;-74
2021/03/21 12:14:47;;;;;;;1.10;1.10;;;7.00;99.90;;;;;;4952819;29;20213;-72
2021/03/21 12:17:32;;;;;;;1.20;1.20;;;6.90;99.90;;;;;;4952791;29;20255;-75
2021/03/21 12:20:33;;;;;;;1.10;1.10;;;7.00;99.90;;;;;;4952594;29;20241;-72
2021/03/21 12:23:01;;;;;;;1.10;1.10;;;7.00;99.90;;;;;;4952891;29;20252;-74
2021/03/21 12:25:31;;;;;;;1.20;1.20;;;7.20;99.90;;;;;;4952439;29;20209;-75
2021/03/21 12:28:18;;;;;;;1.20;1.20;;;7.10;99.90;;;;;;4952747;29;20574;-75
2021/03/21 12:30:49;;;;;;;1.10;1.10;;;7.10;99.90;;;;;;4952163;29;20322;-75
2021/03/21 12:33:31;;;;;;;1.10;1.10;;;7.30;99.90;;;;;;4952742;29;20210;-74
2021/03/21 12:36:13;;;;;;;1.10;1.10;;;7.30;99.90;;;;;;4952187;29;20296;-75
2021/03/21 12:38:46;;;;;;;1.10;1.10;;;7.80;99.90;;;;;;4952776;28;20597;-74
2021/03/21 12:41:39;;;;;;;1.10;1.10;;;7.50;99.90;;;;;;4955704;29;20276;-74
2021/03/21 12:44:12;;;;;;;0.90;0.90;;;7.50;99.90;;;;;;4956223;29;20205;-75
2021/03/21 12:46:43;;;;;;;1.20;1.20;;;7.90;99.90;;;;;;4955855;29;20272;-75
2021/03/21 12:49:28;;;;;;;1.20;1.20;;;7.40;99.90;;;;;;4956639;29;20224;-77
2021/03/21 12:51:58;;;;;;;1.10;1.10;;;7.40;99.90;;;;;;4955800;29;20233;-74
2021/03/21 12:54:27;;;;;;;1.00;1.00;;;7.20;99.90;;;;;;4956704;29;20209;-75
2021/03/21 12:56:54;;;;;;;1.20;1.20;;;7.10;99.90;;;;;;4955781;29;20583;-76
2021/03/21 12:59:21;;;;;;;1.20;1.20;;;7.00;99.90;;;;;;4956036;29;20209;-73
2021/03/21 13:01:49;;;;;;;1.23;1.23;;;6.90;99.90;;;;;;4955420;29;20772;-72
2021/03/21 13:04:16;;;;;;;1.33;1.33;;;7.00;99.90;;;;;;4955554;29;20709;-74
2021/03/21 13:06:53;;;;;;;1.10;1.10;;;6.90;99.90;;;;;;4955468;29;20757;-72
2021/03/21 13:09:19;;;;;;;1.20;1.20;;;6.70;99.90;;;;;;4955885;29;20398;-74
2021/03/21 13:11:47;;;;;;;1.00;1.00;;;6.80;99.90;;;;;;4955335;29;20232;-72
2021/03/21 13:14:15;;;;;;;1.10;1.10;;;;;;;;;;4955525;29;20671;-72
2021/03/21 13:16:43;;;;;;;1.10;1.10;;;;;;;;;;4955578;29;20297;-76
2021/03/21 13:19:10;;;;;;;1.10;1.10;;;;;;;;;;4969892;28;20237;-72
2021/03/21 13:21:38;;;;;;;1.20;1.20;;;;;;;;;;4967178;28;20294;-72
2021/03/21 13:24:06;;;;;;;1.20;1.20;;;7.10;99.90;;;;;;4974873;28;20209;-74
2021/03/21 13:26:33;;;;;;;1.00;1.00;;;;;;;;;;4974130;28;20251;-73
2021/03/21 13:29:00;;;;;;;1.20;1.20;;;7.10;99.90;;;;;;4974400;28;20209;-73
2021/03/21 13:31:27;;;;;;;1.10;1.10;;;7.10;99.90;;;;;;4974236;28;20236;-73
2021/03/21 13:33:55;;;;;;;1.00;1.00;;;;;;;;;;4974718;28;20211;-74
2021/03/21 13:36:21;;;;;;;1.20;1.20;;;7.20;99.90;;;;;;4974123;28;20263;-72
2021/03/21 13:38:48;;;;;;;1.20;1.20;;;7.20;99.90;;;;;;4975217;28;20290;-73
2021/03/21 13:41:30;;;;;;;1.23;1.23;;;7.00;99.90;;;;;;4974819;28;20407;-73
2021/03/21 13:43:58;;;;;;;1.30;1.30;;;;;;;;;;4974075;28;20263;-73
2021/03/21 13:46:26;;;;;;;1.10;1.10;;;7.10;99.90;;;;;;4974019;28;20205;-74
2021/03/21 13:48:53;;;;;;;1.00;1.00;;;7.00;99.90;;;;;;4974247;28;20212;-74
2021/03/21 13:51:20;;;;;;;1.10;1.10;;;7.00;99.90;;;;;;4973334;28;20404;-74
2021/03/21 13:53:48;;;;;;;1.10;1.10;;;;;;;;;;4974292;28;20209;-74
2021/03/21 13:56:15;;;;;;;1.00;1.00;;;;;;;;;;4973752;28;20251;-76
2021/03/21 13:58:42;;;;;;;0.90;0.90;;;7.00;99.90;;;;;;4974543;28;20579;-75
2021/03/21 14:01:09;;;;;;;1.00;1.00;;;;;;;;;;4974044;28;20284;-75
2021/03/21 14:03:37;;;;;;;1.17;1.17;;;7.00;99.90;;;;;;4973905;28;20205;-75
2021/03/21 14:06:05;;;;;;;1.00;1.00;;;7.00;99.90;;;;;;4973493;28;20204;-74
2021/03/21 14:08:32;;;;;;;1.23;1.23;;;;;;;;;;4973655;28;20201;-74
2021/03/21 14:11:01;;;;;;;0.90;0.90;;;7.10;99.90;;;;;;4973853;28;20236;-74
2021/03/21 14:13:28;;;;;;;1.20;1.20;;;;;;;;;;4973645;28;20200;-75
2021/03/21 14:15:55;;;;;;;1.10;1.10;;;;;;;;;;4973538;28;20263;-75
2021/03/21 14:18:23;;;;;;;1.20;1.20;;;7.60;99.90;;;;;;4973910;28;20224;-74
2021/03/21 14:20:54;;;;;;;0.90;0.90;;;7.30;99.90;;;;;;4973614;28;20235;-74
2021/03/21 14:23:23;;;;;;;1.10;1.10;;;7.50;99.90;;;;;;4973213;28;20209;-75
2021/03/21 14:25:51;;;;;;;1.00;1.00;;;7.30;99.90;;;;;;4973263;28;20204;-75
2021/03/21 14:28:19;;;;;;;1.10;1.10;;;7.30;99.90;;;;;;4973376;28;20255;-75
2021/03/21 14:30:46;;;;;;;1.10;1.10;;;;;;;;;;4974079;28;20431;-75
2021/03/21 14:33:15;;;;;;;1.23;1.23;;;7.40;99.90;;;;;;4973161;28;20585;-75
2021/03/21 14:35:43;;;;;;;1.10;1.10;;;7.30;99.90;;;;;;4973042;28;20219;-75
2021/03/21 14:38:14;;;;;;;1.00;1.00;;;7.60;99.90;;;;;;4973384;28;20231;-75
2021/03/21 14:40:41;;;;;;;1.10;1.10;;;7.30;99.90;;;;;;4973275;28;20229;-75
2021/03/21 14:43:11;;;;;;;1.10;1.10;;;7.40;99.90;;;;;;4972937;28;20552;-75
2021/03/21 14:45:39;;;;;;;1.10;1.10;;;7.50;99.90;;;;;;4972969;28;20212;-75
2021/03/21 14:48:07;;;;;;;1.10;1.10;;;7.60;99.90;;;;;;4973008;28;20272;-75
2021/03/21 14:50:35;;;;;;;1.20;1.20;;;;;;;;;;4972973;28;20255;-75
2021/03/21 14:53:06;;;;;;;1.20;1.20;;;7.40;99.90;;;;;;4972867;28;20236;-75
2021/03/21 14:55:37;;;;;;;1.00;1.00;;;7.40;99.90;;;;;;4972713;28;20725;-75
2021/03/21 14:58:05;;;;;;;1.00;1.00;;;;;;;;;;4972831;28;20228;-76
2021/03/21 15:00:34;;;;;;;1.10;1.10;;;7.40;99.90;;;;;;4972773;28;20717;-75
2021/03/21 15:03:02;;;;;;;1.20;1.20;;;7.40;99.90;;;;;;4971708;28;20251;-75
2021/03/21 15:05:30;;;;;;;1.10;1.10;;;6.80;99.90;;;;;;4972404;28;20744;-75
2021/03/21 15:07:57;;;;;;;1.10;1.10;;;;;;;;;;4972808;28;20207;-75
2021/03/21 15:10:27;;;;;;;1.10;1.10;;;7.20;99.90;;;;;;4972523;28;20208;-74
2021/03/21 15:12:55;;;;;;;1.10;1.10;;;7.30;99.90;;;;;;4972388;28;20584;-75
2021/03/21 15:15:28;;;;;;;0.90;0.90;;;7.40;99.90;;;;;;4972282;28;20609;-75
2021/03/21 15:17:55;;;;;;;1.00;1.00;;;7.40;99.90;;;;;;4972711;28;20602;-73
2021/03/21 15:20:24;;;;;;;1.00;1.00;;;7.30;99.90;;;;;;4972619;28;20200;-73
2021/03/21 15:22:52;;;;;;;1.13;1.13;;;;;;;;;;4971650;28;20205;-73
2021/03/21 15:25:21;;;;;;;1.20;1.20;;;7.80;99.90;;;;;;4972050;28;20205;-73
2021/03/21 15:27:51;;;;;;;1.30;1.30;;;7.30;99.90;;;;;;4972568;28;20212;-75
2021/03/21 15:30:21;;;;;;;1.10;1.10;;;7.50;99.90;;;;;;4972753;28;20204;-72
2021/03/21 15:32:49;;;;;;;1.10;1.10;;;7.70;99.90;;;;;;4972728;28;20275;-72
2021/03/21 15:35:18;;;;;;;1.10;1.10;;;7.90;99.90;;;;;;4972783;28;20201;-72
2021/03/21 15:37:45;;;;;;;1.00;1.00;;;7.90;99.90;;;;;;4972457;28;20278;-71
2021/03/21 15:40:16;;;;;;;1.07;1.07;;;7.80;99.90;;;;;;4972387;28;20291;-71
2021/03/21 15:42:43;;;;;;;1.17;1.17;;;8.00;99.90;;;;;;4972153;28;20201;-72
2021/03/21 15:45:12;;;;;;;1.10;1.10;;;7.70;99.90;;;;;;4972180;28;20236;-76
2021/03/21 15:47:39;;;;;;;1.00;1.00;;;7.90;99.90;;;;;;4972586;28;20205;-75
2021/03/21 15:50:08;;;;;;;1.20;1.20;;;7.70;99.90;;;;;;4972848;28;20243;-76
2021/03/21 15:52:35;;;;;;;1.00;1.00;;;;;;;;;;4971859;28;20283;-74
2021/03/21 15:55:03;;;;;;;1.20;1.20;;;;;;;;;;4970917;28;20211;-74
2021/03/21 15:57:29;;;;;;;1.10;1.10;;;7.60;99.90;;;;;;4972173;28;20772;-74
2021/03/21 15:59:57;;;;;;;1.03;1.03;;;;;;;;;;4972546;28;20207;-74
2021/03/21 16:02:26;;;;;;;1.17;1.17;;;7.20;99.90;;;;;;4972065;28;20233;-74
2021/03/21 16:04:54;;;;;;;1.20;1.20;;;7.40;99.90;;;;;;4971850;28;20215;-74
2021/03/21 16:07:21;;;;;;;1.20;1.20;;;7.30;99.90;;;;;;4972361;28;20588;-74
2021/03/21 16:09:48;;;;;;;1.10;1.10;;;7.40;99.90;;;;;;4971915;28;20204;-74
2021/03/21 16:12:16;;;;;;;1.17;1.17;;;7.50;99.90;;;;;;4971930;28;20237;-74
2021/03/21 16:14:43;;;;;;;1.10;1.10;;;;;;;;;;4973547;28;20282;-75
2021/03/21 16:17:10;;;;;;;1.10;1.10;;;7.20;99.90;;;;;;4975742;28;20286;-75
2021/03/21 16:19:37;;;;;;;1.10;1.10;;;;;;;;;;4976036;28;20279;-74
2021/03/21 16:22:09;;;;;;;1.13;1.13;;;7.20;99.90;;;;;;4975479;28;20228;-73
2021/03/21 16:24:36;;;;;;;1.13;1.13;;;7.20;99.90;;;;;;4975687;28;20207;-74
2021/03/21 16:27:04;;;;;;;1.10;1.10;;;7.30;99.90;;;;;;4975634;28;20247;-76
2021/03/21 16:29:31;;;;;;;1.03;1.03;;;7.20;99.90;;;;;;4975730;28;20634;-74
2021/03/21 16:31:58;;;;;;;1.10;1.10;;;7.50;99.90;;;;;;4975532;28;20231;-72
2021/03/21 16:34:25;;;;;;;1.03;1.03;;;;;;;;;;4975324;28;20200;-73
2021/03/21 16:36:53;;;;;;;1.10;1.10;;;7.40;99.90;;;;;;4975104;28;20260;-74
2021/03/21 16:39:34;;;;;;;1.10;1.10;;;7.30;99.90;;;;;;4975411;28;20218;-74
2021/03/21 16:42:01;;;;;;;1.00;1.00;;;7.30;99.90;;;;;;4975308;28;20229;-74
2021/03/21 16:44:30;;;;;;;1.00;1.00;;;7.00;99.90;;;;;;4975254;28;20235;-74
2021/03/21 16:46:57;;;;;;;1.00;1.00;;;7.30;99.90;;;;;;4975188;28;20201;-74
2021/03/21 16:49:25;;;;;;;1.03;1.03;;;7.30;99.90;;;;;;4975035;28;20208;-76
2021/03/21 16:51:52;;;;;;;1.00;1.00;;;7.00;99.90;;;;;;4975132;28;20236;-76
2021/03/21 16:54:19;;;;;;;1.10;1.10;;;6.80;99.90;;;;;;4967014;28;20201;-75
2021/03/21 16:56:47;;;;;;;1.10;1.10;;;7.30;99.90;;;;;;4954302;29;20284;-76
2021/03/21 16:59:14;;;;;;;1.00;1.00;;;;;;;;;;4965694;28;20447;-75
2021/03/21 17:01:41;;;;;;;1.20;1.20;;;7.60;99.90;;;;;;4955233;29;20224;-77
2021/03/21 17:04:08;;;;;;;1.00;1.00;;;7.90;99.90;;;;;;4955222;28;20209;-73
2021/03/21 17:06:36;;;;;;;1.00;1.00;;;7.40;99.90;;;;;;4965532;28;20205;-74
2021/03/21 17:09:03;;;;;;;1.00;1.00;;;7.20;99.90;;;;;;4955957;29;20209;-72
2021/03/21 17:11:43;;;;;;;1.20;1.20;;;7.10;99.90;;;;;;4954530;29;20240;-75
2021/03/21 17:14:14;;;;;;;1.00;1.00;;;6.40;99.90;;;;;;4961242;28;20256;-73
2021/03/21 17:16:41;;;;;;;1.10;1.10;;;7.20;99.90;;;;;;4966039;28;20208;-75
2021/03/21 17:19:09;;;;;;;1.10;1.10;;;7.20;99.90;;;;;;4974579;28;20753;-73
2021/03/21 17:21:36;;;;;;;0.97;0.97;;;7.30;99.90;;;;;;4972863;28;20800;-72
2021/03/21 17:24:11;;;;;;;1.10;1.10;;;7.30;99.90;;;;;;4975381;28;20251;-74
2021/03/21 17:26:39;;;;;;;1.20;1.20;;;7.40;99.90;;;;;;4973233;28;20200;-75
2021/03/21 17:29:08;;;;;;;1.07;1.07;;;7.20;99.90;;;;;;4974190;28;20627;-74
2021/03/21 17:31:36;;;;;;;1.10;1.10;;;7.40;99.90;;;;;;4974604;28;20616;-73
2021/03/21 17:34:04;;;;;;;1.13;1.13;;;7.60;99.90;;;;;;4974363;28;20215;-75
2021/03/21 17:36:31;;;;;;;1.00;1.00;;;7.50;99.90;;;;;;4974214;28;20204;-73
2021/03/21 17:38:58;;;;;;;1.00;1.00;;;7.50;99.90;;;;;;4974179;28;20211;-72
2021/03/21 17:41:25;;;;;;;1.10;1.10;;;;;;;;;;4974005;28;20729;-73
2021/03/21 17:43:53;;;;;;;1.00;1.00;;;;;;;;;;4973582;28;20840;-73
2021/03/21 17:46:19;;;;;;;1.10;1.10;;;7.20;99.90;;;;;;4974155;28;20731;-72
2021/03/21 17:48:47;;;;;;;1.13;1.13;;;7.10;99.90;;;;;;4974240;28;20209;-72
2021/03/21 17:55:01;;;;;;;0.90;0.90;;;;;;;;;;4973679;28;20176;-72
2021/03/21 17:57:29;;;;;;;1.00;1.00;;;7.20;99.90;;;;;;4963804;28;20220;-72
2021/03/21 17:59:59;;;;;;;0.90;0.90;;;7.00;99.90;;;;;;4964542;28;20255;-75
2021/03/21 18:02:26;;;;;;;1.10;1.10;;;7.00;99.90;;;;;;4973716;28;20287;-72
2021/03/21 18:04:54;;;;;;;1.00;1.00;;;7.10;99.90;;;;;;4973281;28;20303;-71
2021/03/21 18:07:21;;;;;;;1.30;1.30;;;7.20;99.90;;;;;;4973505;28;20196;-72
2021/03/21 18:09:48;;;;;;;1.20;1.20;;;;;;;;;;4973444;28;20655;-75
2021/03/21 18:12:15;;;;;;;1.00;1.00;;;7.20;99.90;;;;;;4969703;28;20237;-72
2021/03/21 18:14:42;;;;;;;0.90;0.90;;;;;;;;;;4965502;28;20209;-73
2021/03/21 18:17:09;;;;;;;1.00;1.00;;;7.80;99.90;;;;;;4973666;28;20228;-72
2021/03/21 18:19:36;;;;;;;1.10;1.10;;;7.20;99.90;;;;;;4973760;28;20619;-72
2021/03/21 18:22:05;;;;;;;1.00;1.00;;;7.10;99.90;;;;;;4973613;28;20231;-72
2021/03/21 18:24:47;;;;;;;1.10;1.10;;;7.80;99.90;;;;;;4972858;28;20224;-71
2021/03/21 18:27:14;;;;;;;0.90;0.90;;;;;;;;;;4972933;28;20217;-75
2021/03/21 18:29:41;;;;;;;1.10;1.10;;;7.10;99.90;;;;;;4964213;28;20205;-73
2021/03/21 18:32:09;;;;;;;1.17;1.17;;;;;;;;;;4954191;29;20287;-73
2021/03/21 18:34:37;;;;;;;0.97;0.97;;;7.20;99.90;;;;;;4953794;29;20205;-74
2021/03/21 18:37:05;;;;;;;1.00;1.00;;;7.30;99.90;;;;;;4953386;28;20236;-73
2021/03/21 18:39:32;;;;;;;1.10;1.10;;;7.70;99.90;;;;;;4953806;29;20202;-73
2021/03/21 18:41:59;;;;;;;1.07;1.07;;;7.70;99.90;;;;;;4953801;29;20240;-73
2021/03/21 18:44:26;;;;;;;1.13;1.13;;;7.00;99.90;;;;;;4954017;29;20205;-73
2021/03/21 18:46:53;;;;;;;1.20;1.20;;;;;;;;;;4953918;29;20209;-74
2021/03/21 18:49:20;;;;;;;0.90;0.90;;;;;;;;;;4953635;29;20296;-73
2021/03/21 18:51:48;;;;;;;1.00;1.00;;;7.10;99.90;;;;;;4953448;29;20229;-73
2021/03/21 18:54:17;;;;;;;1.13;1.13;;;6.90;99.90;;;;;;4953471;29;20256;-73
2021/03/21 18:56:44;;;;;;;1.20;1.20;;;6.90;99.90;;;;;;4953386;29;20326;-73
2021/03/21 18:59:11;;;;;;;1.10;1.10;;;6.90;99.90;;;;;;4953640;29;20205;-74
2021/03/21 19:01:42;;;;;;;1.03;1.03;;;6.80;99.90;;;;;;4953378;29;20225;-73
2021/03/21 19:04:10;;;;;;;0.90;0.90;;;6.80;99.90;;;;;;4953529;29;20260;-73
2021/03/21 19:06:37;;;;;;;1.03;1.03;;;;;;;;;;4953554;29;20263;-73